Time;durP1;ratioP1;P1;durP2;ratioP2;P2;SDS_P1;SDS_P2;PMS_P1;PMS_P2;Temp;Humidity;BMP_temperature;BMP_pressure;BME280_temperature;BME280_humidity;BME280_pressure;Samples;Min_cycle;Max_cycle;Signal;HPM_P1;HPM_P2
2023/03/28 00:01:21;;;;;;;4.28;0.60;;;;;;;;;;4954251;29;20106;-76
2023/03/28 00:03:47;;;;;;;5.05;0.52;;;;;;;;;;4954123;29;20107;-76
2023/03/28 00:06:17;;;;;;;2.70;0.63;;;;;;;;;;4954106;29;20035;-76
2023/03/28 00:08:46;;;;;;;2.85;0.55;;;;;;;;;;4954112;29;20034;-76
2023/03/28 00:11:18;;;;;;;7.30;1.40;;;;;;;;;;4954327;29;20066;-76
2023/03/28 00:13:45;;;;;;;3.90;0.88;;;;;;;;;;4954365;29;20031;-76
2023/03/28 00:16:13;;;;;;;9.68;1.05;;;;;;;;;;4954083;29;20020;-75
2023/03/28 00:18:41;;;;;;;3.38;0.77;;;;;;;;;;4954025;29;20027;-76
2023/03/28 00:21:22;;;;;;;2.83;0.77;;;;;;;;;;4954101;29;20023;-76
2023/03/28 00:23:51;;;;;;;8.88;1.33;;;;;;;;;;4954802;28;20082;-75
2023/03/28 00:26:17;;;;;;;3.38;0.73;;;;;;;;;;4957867;29;20019;-76
2023/03/28 00:28:45;;;;;;;3.53;0.90;;;;;;;;;;4957390;29;20047;-76
2023/03/28 00:31:11;;;;;;;4.25;0.90;;;;;;;;;;4957457;29;20447;-76
2023/03/28 00:33:37;;;;;;;4.43;1.05;;;;;;;;;;4957437;29;20031;-76
2023/03/28 00:36:04;;;;;;;4.78;1.05;;;;;;;;;;4957635;29;20137;-76
2023/03/28 00:38:30;;;;;;;5.72;0.60;;;;;;;;;;4957608;29;20023;-75
2023/03/28 00:40:57;;;;;;;2.88;0.50;;;;;;;;;;4957438;29;20426;-76
2023/03/28 00:43:41;;;;;;;4.93;0.80;;;;;;;;;;4957205;29;20424;-76
2023/03/28 00:46:10;;;;;;;7.93;0.88;;;;;;;;;;4957288;29;20026;-76
2023/03/28 00:48:36;;;;;;;6.53;0.95;;;;;;;;;;4955962;29;20051;-76
2023/03/28 00:51:04;;;;;;;5.93;0.80;;;;;;;;;;4939832;29;20118;-76
2023/03/28 00:53:32;;;;;;;4.88;0.93;;;;;;;;;;4957402;29;20032;-76
2023/03/28 00:56:03;;;;;;;6.65;1.08;;;;;;;;;;4957068;29;20377;-76
2023/03/28 00:58:29;;;;;;;;;;;;;;;;;;4957511;29;20098;-76
2023/03/28 01:00:56;;;;;;;6.10;1.27;;;;;;;;;;4957088;29;19912;-76
2023/03/28 01:03:26;;;;;;;6.25;0.70;;;;;;;;;;4956899;29;20053;-76
2023/03/28 01:05:52;;;;;;;;;;;;;;;;;;4957375;29;20027;-76
2023/03/28 01:08:29;;;;;;;8.23;0.80;;;;;;;;;;4956851;29;19970;-76
2023/03/28 01:10:55;;;;;;;6.13;1.30;;;;;;;;;;4956879;29;20039;-75
2023/03/28 01:13:25;;;;;;;4.30;0.98;;;;;;;;;;4957004;29;20466;-75
2023/03/28 01:15:51;;;;;;;;;;;;;;;;;;4957177;29;20122;-75
2023/03/28 01:18:21;;;;;;;9.40;1.00;;;;;;;;;;4956653;29;20325;-75
2023/03/28 01:20:48;;;;;;;16.08;1.67;;;;;;;;;;4956802;29;20451;-75
2023/03/28 01:23:17;;;;;;;8.10;1.15;;;;;;;;;;4956762;29;20042;-75
2023/03/28 01:25:43;;;;;;;5.50;0.98;;;;;;;;;;4956622;29;20078;-75
2023/03/28 01:28:28;;;;;;;2.55;0.70;;;;;;;;;;4956457;29;20100;-75
2023/03/28 01:31:00;;;;;;;5.20;1.00;;;;;;;;;;4956517;29;20034;-75
2023/03/28 01:33:39;;;;;;;3.15;0.73;;;;;;;;;;4956422;29;20027;-75
2023/03/28 01:36:11;;;;;;;8.05;1.48;;;;;;;;;;4955926;28;20027;-75
2023/03/28 01:38:47;;;;;;;8.10;1.48;;;;;;;;;;4956298;29;20039;-75
2023/03/28 01:41:22;;;;;;;10.32;1.40;;;;;;;;;;4956199;29;20114;-75
2023/03/28 01:43:55;;;;;;;8.18;1.42;;;;;;;;;;4956234;29;20027;-75
2023/03/28 01:46:27;;;;;;;4.18;1.10;;;;;;;;;;4956434;29;20394;-75
2023/03/28 01:49:11;;;;;;;9.38;1.30;;;;;;;;;;4917881;29;20032;-75
2023/03/28 01:51:49;;;;;;;5.97;1.20;;;;;;;;;;4917947;29;20055;-75
2023/03/28 01:54:35;;;;;;;6.30;1.00;;;;;;;;;;4917884;29;20495;-75
2023/03/28 01:57:04;;;;;;;7.55;1.35;;;;;;;;;;4888330;29;20046;-75
2023/03/28 01:59:35;;;;;;;6.05;0.90;;;;;;;;;;4917836;29;20024;-76
2023/03/28 02:02:19;;;;;;;8.77;0.95;;;;;;;;;;4918206;29;20058;-75
2023/03/28 02:04:47;;;;;;;2.92;0.68;;;;;;;;;;4917806;29;20076;-75
2023/03/28 02:07:13;;;;;;;6.53;0.90;;;;;;;;;;4917778;29;20348;-75
2023/03/28 02:09:40;;;;;;;6.03;1.00;;;;;;;;;;4917616;29;20036;-75
2023/03/28 02:12:11;;;;;;;4.88;0.98;;;;;;;;;;4917548;29;20024;-75
2023/03/28 02:14:41;;;;;;;10.30;1.30;;;;;;;;;;4917877;29;20416;-75
2023/03/28 02:17:14;;;;;;;12.23;1.13;;;;;;;;;;4917792;29;20031;-75
2023/03/28 02:19:41;;;;;;;5.57;1.02;;;;;;;;;;4917748;29;20028;-75
2023/03/28 02:22:15;;;;;;;5.32;0.85;;;;;;;;;;4917240;29;20020;-75
2023/03/28 02:24:41;;;;;;;10.55;0.80;;;;;;;;;;4917287;29;20039;-75
2023/03/28 02:27:07;;;;;;;8.15;1.33;;;;;;;;;;4917470;29;20368;-75
2023/03/28 02:29:35;;;;;;;3.90;0.80;;;;;;;;;;4917170;29;20044;-75
2023/03/28 02:32:02;;;;;;;3.13;1.02;;;;;;;;;;4917407;29;20024;-75
2023/03/28 02:34:28;;;;;;;3.88;0.80;;;;;;;;;;4917376;29;20111;-75
2023/03/28 02:36:54;;;;;;;7.57;1.45;;;;;;;;;;4917010;29;20479;-75
2023/03/28 02:39:28;;;;;;;6.32;0.73;;;;;;;;;;4917105;29;20028;-75
2023/03/28 02:41:57;;;;;;;3.75;1.63;;;;;;;;;;4916919;29;20028;-75
2023/03/28 02:44:42;;;;;;;6.57;1.35;;;;;;;;;;4916957;29;20031;-75
2023/03/28 02:47:33;;;;;;;7.40;0.80;;;;;;;;;;4928678;28;20057;-75
2023/03/28 02:50:24;;;;;;;7.68;0.85;;;;;;;;;;4954917;29;20035;-75
2023/03/28 02:52:54;;;;;;;9.65;1.20;;;;;;;;;;4955214;29;20106;-75
2023/03/28 02:55:33;;;;;;;3.10;0.85;;;;;;;;;;4937638;29;20097;-75
2023/03/28 02:58:03;;;;;;;5.80;1.90;;;;;;;;;;4954987;29;20497;-75
2023/03/28 03:00:29;;;;;;;6.10;1.30;;;;;;;;;;4954868;29;20035;-75
2023/03/28 03:02:56;;;;;;;8.63;1.75;;;;;;;;;;4954828;29;20070;-75
2023/03/28 03:05:22;;;;;;;8.60;1.48;;;;;;;;;;4954733;29;20036;-75
2023/03/28 03:07:49;;;;;;;8.63;1.67;;;;;;;;;;4954691;29;20097;-75
2023/03/28 03:10:15;;;;;;;4.30;1.10;;;;;;;;;;4954628;29;20474;-75
2023/03/28 03:12:41;;;;;;;8.57;1.10;;;;;;;;;;4954685;29;20064;-75
2023/03/28 03:15:09;;;;;;;7.43;1.23;;;;;;;;;;4954966;29;20431;-75
2023/03/28 03:17:35;;;;;;;3.25;1.20;;;;;;;;;;4954672;29;20030;-76
2023/03/28 03:20:05;;;;;;;4.03;0.88;;;;;;;;;;4954604;29;20034;-76
2023/03/28 03:22:32;;;;;;;4.03;1.10;;;;;;;;;;4954686;29;20119;-76
2023/03/28 03:25:03;;;;;;;5.78;1.27;;;;;;;;;;4954686;29;20027;-76
2023/03/28 03:27:30;;;;;;;5.38;1.70;;;;;;;;;;4954783;29;20025;-76
2023/03/28 03:29:56;;;;;;;5.18;1.38;;;;;;;;;;4954438;29;20038;-76
2023/03/28 03:32:22;;;;;;;8.90;1.38;;;;;;;;;;4954459;29;20031;-76
2023/03/28 03:34:48;;;;;;;8.40;1.60;;;;;;;;;;4954430;29;20415;-75
2023/03/28 03:37:16;;;;;;;5.35;1.40;;;;;;;;;;4954266;29;20525;-76
2023/03/28 03:39:47;;;;;;;8.60;1.38;;;;;;;;;;4953146;29;20031;-76
2023/03/28 03:42:12;;;;;;;;;;;;;;;;;;4954924;29;20035;-76
2023/03/28 03:44:38;;;;;;;6.07;1.15;;;;;;;;;;4954328;29;19906;-76
2023/03/28 03:47:05;;;;;;;6.18;1.15;;;;;;;;;;4953388;29;20051;-76
2023/03/28 03:49:31;;;;;;;10.88;1.63;;;;;;;;;;4954189;29;20030;-76
2023/03/28 03:51:57;;;;;;;5.88;1.77;;;;;;;;;;4954610;29;20039;-76
2023/03/28 03:54:23;;;;;;;7.43;1.50;;;;;;;;;;4954257;29;20039;-76
2023/03/28 03:56:49;;;;;;;6.68;1.17;;;;;;;;;;4954083;29;20524;-76
2023/03/28 03:59:15;;;;;;;8.48;1.45;;;;;;;;;;4955777;28;20028;-76
2023/03/28 04:01:42;;;;;;;6.13;1.77;;;;;;;;;;4958211;29;20078;-76
2023/03/28 04:04:09;;;;;;;8.35;1.73;;;;;;;;;;4956995;29;20034;-76
2023/03/28 04:06:37;;;;;;;9.20;1.95;;;;;;;;;;4958033;29;20025;-76
2023/03/28 04:09:04;;;;;;;10.57;2.85;;;;;;;;;;4958002;29;20083;-76
2023/03/28 04:11:30;;;;;;;12.50;2.13;;;;;;;;;;4957860;29;20090;-76
2023/03/28 04:13:55;;;;;;;6.82;1.60;;;;;;;;;;4958132;29;20035;-76
2023/03/28 04:16:22;;;;;;;5.55;1.80;;;;;;;;;;4957807;29;20451;-76
2023/03/28 04:18:51;;;;;;;6.55;1.80;;;;;;;;;;4958118;29;20034;-77
2023/03/28 04:21:29;;;;;;;12.68;1.83;;;;;;;;;;4957728;29;20046;-77
2023/03/28 04:24:00;;;;;;;6.20;1.10;;;;;;;;;;4957943;29;20070;-77
2023/03/28 04:26:27;;;;;;;8.30;1.50;;;;;;;;;;4958622;29;20023;-77
2023/03/28 04:28:53;;;;;;;11.65;1.35;;;;;;;;;;4940647;29;20071;-77
2023/03/28 04:31:20;;;;;;;9.93;1.55;;;;;;;;;;4940684;29;20118;-76
2023/03/28 04:33:46;;;;;;;6.68;1.27;;;;;;;;;;4957880;29;20066;-76
2023/03/28 04:36:15;;;;;;;9.10;1.30;;;;;;;;;;4957854;29;20047;-77
2023/03/28 04:38:48;;;;;;;2.28;0.68;;;;;;;;;;4958319;29;20031;-77
2023/03/28 04:41:15;;;;;;;6.93;1.30;;;;;;;;;;4938815;29;20028;-77
2023/03/28 04:43:41;;;;;;;4.07;0.95;;;;;;;;;;4938961;29;20035;-77
2023/03/28 04:46:07;;;;;;;6.30;1.70;;;;;;;;;;4938942;29;20027;-77
2023/03/28 04:48:33;;;;;;;5.32;1.00;;;;;;;;;;4938699;29;20203;-77
2023/03/28 04:50:59;;;;;;;6.53;1.52;;;;;;;;;;4938586;29;20419;-77
2023/03/28 04:53:25;;;;;;;9.35;1.10;;;;;;;;;;4938664;29;20028;-77
2023/03/28 04:55:52;;;;;;;6.55;0.80;;;;;;;;;;4938988;29;20034;-77
2023/03/28 04:58:19;;;;;;;5.47;1.25;;;;;;;;;;4940701;29;20027;-77
2023/03/28 05:00:45;;;;;;;3.22;0.90;;;;;;;;;;4938694;29;20078;-77
2023/03/28 05:03:17;;;;;;;10.50;0.88;;;;;;;;;;4941365;29;20023;-77
2023/03/28 05:05:51;;;;;;;5.63;1.00;;;;;;;;;;4923205;29;20055;-77
2023/03/28 05:08:17;;;;;;;3.67;0.80;;;;;;;;;;4938656;29;20514;-77
2023/03/28 05:10:44;;;;;;;7.18;0.90;;;;;;;;;;4936820;29;20454;-77
2023/03/28 05:13:10;;;;;;;5.30;1.10;;;;;;;;;;4938049;29;20641;-77
2023/03/28 05:15:36;;;;;;;3.90;0.80;;;;;;;;;;4938069;29;20028;-77
2023/03/28 05:18:02;;;;;;;5.78;1.02;;;;;;;;;;4938086;29;20039;-77
2023/03/28 05:20:28;;;;;;;3.72;0.90;;;;;;;;;;4937692;29;20027;-77
2023/03/28 05:22:54;;;;;;;4.30;0.95;;;;;;;;;;4921018;29;20035;-77
2023/03/28 05:25:21;;;;;;;10.90;2.60;;;;;;;;;;4938335;29;20053;-77
2023/03/28 05:27:47;;;;;;;10.02;2.90;;;;;;;;;;4938047;29;20035;-77
2023/03/28 05:30:14;;;;;;;7.82;3.40;;;;;;;;;;4937874;29;20031;-77
2023/03/28 05:32:40;;;;;;;6.40;2.03;;;;;;;;;;4938401;29;20027;-77
2023/03/28 05:35:07;;;;;;;7.53;2.35;;;;;;;;;;4921232;29;20031;-77
2023/03/28 05:37:34;;;;;;;9.02;2.33;;;;;;;;;;4937598;29;20039;-77
2023/03/28 05:40:00;;;;;;;9.25;2.15;;;;;;;;;;4937763;29;20107;-77
2023/03/28 05:42:26;;;;;;;7.45;1.70;;;;;;;;;;4937760;29;20078;-77
2023/03/28 05:44:52;;;;;;;8.80;2.80;;;;;;;;;;4937770;29;20036;-77
2023/03/28 05:47:19;;;;;;;10.43;3.72;;;;;;;;;;4937121;29;20130;-77
2023/03/28 05:49:45;;;;;;;7.03;3.33;;;;;;;;;;4937784;29;20112;-77
2023/03/28 05:52:30;;;;;;;8.23;4.15;;;;;;;;;;4937627;29;20047;-77
2023/03/28 05:54:56;;;;;;;9.57;4.40;;;;;;;;;;4937579;29;20028;-77
2023/03/28 05:57:22;;;;;;;6.75;3.42;;;;;;;;;;4937555;29;20020;-77
2023/03/28 05:59:48;;;;;;;6.32;3.75;;;;;;;;;;4955083;29;20027;-77
2023/03/28 06:02:16;;;;;;;9.20;4.30;;;;;;;;;;4955294;29;20149;-77
2023/03/28 06:04:42;;;;;;;9.10;3.97;;;;;;;;;;4955142;29;20488;-77
2023/03/28 06:07:09;;;;;;;7.68;3.58;;;;;;;;;;4936633;29;20024;-77
2023/03/28 06:09:35;;;;;;;10.43;5.25;;;;;;;;;;4936049;29;20043;-77
2023/03/28 06:12:02;;;;;;;9.80;3.72;;;;;;;;;;4919642;29;20394;-77
2023/03/28 06:14:28;;;;;;;8.32;4.03;;;;;;;;;;4948928;29;20032;-77
2023/03/28 06:16:54;;;;;;;8.02;4.78;;;;;;;;;;4956331;29;20478;-77
2023/03/28 06:19:20;;;;;;;7.63;3.88;;;;;;;;;;4956446;29;20106;-77
2023/03/28 06:21:47;;;;;;;5.68;2.80;;;;;;;;;;4955772;28;20107;-77
2023/03/28 06:24:13;;;;;;;5.82;1.83;;;;;;;;;;4955934;29;20027;-77
2023/03/28 06:26:39;;;;;;;5.53;1.38;;;;;;;;;;4955935;29;20034;-77
2023/03/28 06:29:05;;;;;;;6.22;1.50;;;;;;;;;;4955850;29;20024;-77
2023/03/28 06:31:31;;;;;;;7.50;1.50;;;;;;;;;;4956295;29;20070;-77
2023/03/28 06:33:58;;;;;;;5.10;1.70;;;;;;;;;;4955663;29;20027;-77
2023/03/28 06:36:24;;;;;;;4.95;1.58;;;;;;;;;;4955706;29;20038;-77
2023/03/28 06:38:52;;;;;;;7.70;1.75;;;;;;;;;;4955965;29;20529;-77
2023/03/28 06:41:18;;;;;;;2.13;1.05;;;;;;;;;;4956013;29;20028;-77
2023/03/28 06:43:44;;;;;;;3.72;1.63;;;;;;;;;;4955681;29;20050;-77
2023/03/28 06:46:10;;;;;;;5.82;1.60;;;;;;;;;;4955699;29;20046;-77
2023/03/28 06:48:36;;;;;;;6.35;2.00;;;;;;;;;;4955431;29;20548;-77
2023/03/28 06:51:03;;;;;;;3.90;1.48;;;;;;;;;;4955551;29;20027;-77
2023/03/28 06:53:29;;;;;;;2.92;1.20;;;;;;;;;;4955305;29;20027;-77
2023/03/28 06:55:55;;;;;;;7.18;2.10;;;;;;;;;;4938158;29;20019;-77
2023/03/28 06:58:22;;;;;;;3.13;1.40;;;;;;;;;;4955214;29;20038;-77
2023/03/28 07:00:50;;;;;;;4.45;1.35;;;;;;;;;;4955279;29;20107;-77
2023/03/28 07:03:16;;;;;;;3.10;1.30;;;;;;;;;;4956403;29;20027;-77
2023/03/28 07:05:42;;;;;;;3.80;1.50;;;;;;;;;;4956187;29;20433;-77
2023/03/28 07:08:09;;;;;;;3.75;1.77;;;;;;;;;;4955587;29;20374;-77
2023/03/28 07:10:36;;;;;;;2.78;1.50;;;;;;;;;;4934037;29;20027;-78
2023/03/28 07:13:01;;;;;;;5.22;1.10;;;;;;;;;;4954671;28;20023;-77
2023/03/28 07:15:34;;;;;;;2.13;1.10;;;;;;;;;;4955001;28;20028;-77
2023/03/28 07:18:00;;;;;;;4.70;1.25;;;;;;;;;;4953373;28;20088;-77
2023/03/28 07:20:26;;;;;;;2.83;0.90;;;;;;;;;;4933481;29;20024;-77
2023/03/28 07:22:53;;;;;;;5.35;0.80;;;;;;;;;;4945528;29;20449;-77
2023/03/28 07:25:20;;;;;;;4.72;1.00;;;;;;;;;;4947659;29;20024;-77
2023/03/28 07:27:48;;;;;;;2.53;0.80;;;;;;;;;;4947531;29;20103;-78
2023/03/28 07:30:14;;;;;;;5.63;1.98;;;;;;;;;;4953628;29;20030;-78
2023/03/28 07:32:40;;;;;;;6.00;1.10;;;;;;;;;;4954361;29;20028;-78
2023/03/28 07:35:07;;;;;;;1.58;0.70;;;;;;;;;;4953357;29;20070;-78
2023/03/28 07:37:33;;;;;;;1.50;0.88;;;;;;;;;;4953765;29;20027;-78
2023/03/28 07:39:59;;;;;;;1.95;1.35;;;;;;;;;;4954626;29;20031;-77
2023/03/28 07:42:26;;;;;;;7.60;1.75;;;;;;;;;;4954117;29;20038;-77
2023/03/28 07:44:52;;;;;;;2.95;0.80;;;;;;;;;;4954669;29;20039;-77
2023/03/28 07:47:19;;;;;;;2.15;1.02;;;;;;;;;;4954483;29;20055;-78
2023/03/28 07:49:46;;;;;;;2.03;0.63;;;;;;;;;;4956014;29;20050;-80
2023/03/28 07:52:12;;;;;;;2.58;1.00;;;;;;;;;;4954147;29;20024;-78
2023/03/28 07:54:38;;;;;;;1.67;0.50;;;;;;;;;;4953599;29;20031;-77
2023/03/28 07:57:06;;;;;;;4.00;1.58;;;;;;;;;;4936856;29;20122;-78
2023/03/28 07:59:36;;;;;;;3.95;0.80;;;;;;;;;;4953729;29;20031;-78
2023/03/28 08:02:02;;;;;;;3.05;0.75;;;;;;;;;;4943178;29;20043;-78
2023/03/28 08:04:28;;;;;;;3.47;0.50;;;;;;;;;;4934901;29;20617;-78
2023/03/28 08:06:54;;;;;;;3.55;0.80;;;;;;;;;;4936435;29;20039;-78
2023/03/28 08:09:20;;;;;;;4.10;0.93;;;;;;;;;;4937290;29;20039;-79
2023/03/28 08:11:47;;;;;;;1.23;0.40;;;;;;;;;;4935872;29;20036;-78
2023/03/28 08:14:14;;;;;;;1.90;0.70;;;;;;;;;;4935970;29;20032;-78
2023/03/28 08:16:41;;;;;;;1.48;0.70;;;;;;;;;;4920954;29;20063;-79
2023/03/28 08:19:07;;;;;;;3.92;0.70;;;;;;;;;;4937645;29;20027;-79
2023/03/28 08:21:34;;;;;;;3.55;0.82;;;;;;;;;;4937194;29;20027;-79
2023/03/28 08:24:00;;;;;;;1.90;0.50;;;;;;;;;;4956628;29;20053;-79
2023/03/28 08:26:27;;;;;;;2.72;0.60;;;;;;;;;;4956675;29;20446;-79
2023/03/28 08:28:54;;;;;;;1.85;0.47;;;;;;;;;;4957656;29;20065;-79
2023/03/28 08:31:22;;;;;;;4.18;0.80;;;;;;;;;;4957376;29;20034;-79
2023/03/28 08:33:50;;;;;;;1.77;0.90;;;;;;;;;;4957279;29;20155;-78
2023/03/28 08:36:17;;;;;;;2.60;0.80;;;;;;;;;;4957192;29;20022;-78
2023/03/28 08:38:43;;;;;;;2.72;0.85;;;;;;;;;;4958458;29;20066;-79
2023/03/28 08:41:15;;;;;;;2.25;1.10;;;;;;;;;;4952219;29;20020;-79
2023/03/28 08:43:43;;;;;;;2.85;1.10;;;;;;;;;;4956791;29;20055;-79
2023/03/28 08:46:11;;;;;;;2.78;0.90;;;;;;;;;;4959321;28;20157;-79
2023/03/28 08:48:40;;;;;;;3.65;1.23;;;;;;;;;;4959328;29;20078;-79
2023/03/28 08:51:12;;;;;;;2.53;0.80;;;;;;;;;;4960008;29;20031;-79
2023/03/28 08:53:42;;;;;;;2.58;0.93;;;;;;;;;;4960077;29;20023;-79
2023/03/28 08:56:08;;;;;;;;;;;;;;;;;;4963142;29;20019;-79
2023/03/28 08:58:54;;;;;;;2.40;0.90;;;;;;;;;;4962176;29;19929;-79
2023/03/28 09:01:22;;;;;;;3.63;1.20;;;;;;;;;;4959909;28;20028;-79
2023/03/28 09:03:51;;;;;;;1.92;0.82;;;;;;;;;;4959552;29;20031;-78
2023/03/28 09:06:28;;;;;;;3.53;0.75;;;;;;;;;;4961124;29;20023;-79
2023/03/28 09:09:00;;;;;;;3.58;1.00;;;;;;;;;;4960861;29;20031;-79
2023/03/28 09:11:26;;;;;;;4.30;1.05;;;;;;;;;;4960117;29;20019;-79
2023/03/28 09:13:52;;;;;;;2.45;0.77;;;;;;;;;;4959358;29;20030;-79
2023/03/28 09:16:33;;;;;;;3.47;1.15;;;;;;;;;;4959500;29;20062;-79
2023/03/28 09:19:02;;;;;;;3.10;1.00;;;;;;;;;;4959300;29;20047;-79
2023/03/28 09:21:36;;;;;;;3.10;1.02;;;;;;;;;;4959017;29;20028;-79
2023/03/28 09:24:08;;;;;;;4.60;1.15;;;;;;;;;;4958961;29;20027;-79
2023/03/28 09:26:35;;;;;;;2.28;0.90;;;;;;;;;;4959342;29;20041;-79
2023/03/28 09:29:23;;;;;;;4.63;0.95;;;;;;;;;;4959107;29;20075;-79
2023/03/28 09:31:52;;;;;;;3.25;1.00;;;;;;;;;;4952898;29;20115;-79
2023/03/28 09:34:26;;;;;;;3.97;1.58;;;;;;;;;;4941869;29;20032;-79
2023/03/28 09:36:53;;;;;;;4.28;1.60;;;;;;;;;;4940329;29;20030;-79
2023/03/28 09:39:33;;;;;;;4.78;1.50;;;;;;;;;;4941071;29;20063;-79
2023/03/28 09:41:59;;;;;;;;;;;;;;;;;;4940894;29;20051;-79
2023/03/28 09:44:27;;;;;;;3.15;1.52;;;;;;;;;;4939761;29;19914;-79
2023/03/28 09:46:56;;;;;;;3.03;1.77;;;;;;;;;;4939330;29;20087;-79
2023/03/28 09:49:23;;;;;;;6.38;1.70;;;;;;;;;;4922550;29;20040;-78
2023/03/28 09:51:50;;;;;;;5.38;1.80;;;;;;;;;;4940222;29;20028;-78
2023/03/28 09:54:17;;;;;;;3.17;1.63;;;;;;;;;;4940560;29;20027;-78
2023/03/28 09:56:45;;;;;;;4.50;1.80;;;;;;;;;;4921668;29;20035;-79
2023/03/28 09:59:24;;;;;;;4.15;1.80;;;;;;;;;;4939341;29;20070;-78
2023/03/28 10:01:51;;;;;;;4.53;1.70;;;;;;;;;;4942437;29;20035;-78
2023/03/28 10:04:26;;;;;;;4.72;1.80;;;;;;;;;;4946662;29;20031;-79
2023/03/28 10:06:53;;;;;;;4.88;2.10;;;;;;;;;;4941318;29;20462;-78
2023/03/28 10:09:23;;;;;;;7.53;2.15;;;;;;;;;;4951972;29;20737;-79
2023/03/28 10:11:49;;;;;;;3.58;1.88;;;;;;;;;;4948780;29;20043;-78
2023/03/28 10:14:39;;;;;;;3.88;2.30;;;;;;;;;;4939504;29;20068;-79
2023/03/28 10:17:06;;;;;;;4.75;2.05;;;;;;;;;;4946175;29;20035;-79
2023/03/28 10:19:34;;;;;;;6.18;2.33;;;;;;;;;;4955210;29;20020;-78
2023/03/28 10:22:02;;;;;;;5.50;2.45;;;;;;;;;;4940942;29;20109;-78
2023/03/28 10:24:31;;;;;;;4.72;2.17;;;;;;;;;;4927541;29;20028;-79
2023/03/28 10:26:58;;;;;;;3.30;2.23;;;;;;;;;;4959302;29;20019;-79
2023/03/28 10:29:25;;;;;;;6.07;2.50;;;;;;;;;;4959093;29;20122;-79
2023/03/28 10:31:51;;;;;;;3.97;2.00;;;;;;;;;;4948633;29;20020;-79
2023/03/28 10:34:28;;;;;;;5.05;2.47;;;;;;;;;;4960242;29;20050;-79
2023/03/28 10:36:54;;;;;;;8.13;2.50;;;;;;;;;;4957613;29;20034;-79
2023/03/28 10:39:27;;;;;;;3.70;2.40;;;;;;;;;;4945123;29;20024;-79
2023/03/28 10:41:54;;;;;;;5.45;2.50;;;;;;;;;;4938814;29;20038;-78
2023/03/28 10:44:26;;;;;;;7.00;2.88;;;;;;;;;;4954042;29;20043;-79
2023/03/28 10:46:53;;;;;;;6.07;2.40;;;;;;;;;;4950690;29;20474;-79
2023/03/28 10:49:20;;;;;;;6.82;2.35;;;;;;;;;;4957658;29;20360;-79
2023/03/28 10:51:46;;;;;;;8.05;2.70;;;;;;;;;;4942055;29;20036;-79
2023/03/28 10:54:12;;;;;;;4.72;2.97;;;;;;;;;;4937832;29;20054;-79
2023/03/28 10:56:49;;;;;;;6.40;2.80;;;;;;;;;;4937557;29;20467;-78
2023/03/28 10:59:33;;;;;;;5.85;2.67;;;;;;;;;;4938415;29;20028;-78
2023/03/28 11:02:15;;;;;;;6.13;2.22;;;;;;;;;;4923012;29;20028;-79
2023/03/28 11:04:56;;;;;;;6.95;2.40;;;;;;;;;;4938423;29;20035;-78
2023/03/28 11:07:25;;;;;;;6.00;3.15;;;;;;;;;;4938074;29;20024;-78
2023/03/28 11:10:03;;;;;;;8.47;2.90;;;;;;;;;;4941519;29;20374;-79
2023/03/28 11:12:47;;;;;;;5.63;2.88;;;;;;;;;;4957098;29;20023;-78
2023/03/28 11:15:13;;;;;;;5.68;2.78;;;;;;;;;;4957544;29;20051;-78
2023/03/28 11:17:58;;;;;;;5.97;3.03;;;;;;;;;;4958528;29;20028;-79
2023/03/28 11:20:42;;;;;;;5.43;2.70;;;;;;;;;;4957440;29;20031;-78
2023/03/28 11:23:16;;;;;;;6.88;2.80;;;;;;;;;;4957531;29;20378;-79
2023/03/28 11:25:54;;;;;;;4.93;2.72;;;;;;;;;;4956865;29;20035;-78
2023/03/28 11:28:27;;;;;;;6.75;2.80;;;;;;;;;;4941699;29;20066;-79
2023/03/28 11:30:55;;;;;;;5.28;2.40;;;;;;;;;;4957385;29;20082;-79
2023/03/28 11:33:27;;;;;;;4.78;2.58;;;;;;;;;;4956400;29;20024;-78
2023/03/28 11:35:56;;;;;;;5.20;2.72;;;;;;;;;;4958238;29;20037;-79
2023/03/28 11:38:29;;;;;;;7.78;2.50;;;;;;;;;;4957106;29;20038;-78
2023/03/28 11:41:01;;;;;;;5.60;3.00;;;;;;;;;;4939541;29;20035;-78
2023/03/28 11:43:31;;;;;;;7.50;2.63;;;;;;;;;;4958367;29;20035;-79
2023/03/28 11:46:23;;;;;;;5.93;2.33;;;;;;;;;;4957172;29;20560;-78
2023/03/28 11:49:09;;;;;;;5.82;2.30;;;;;;;;;;4953616;29;20127;-78
2023/03/28 11:51:42;;;;;;;5.18;2.42;;;;;;;;;;4911264;29;20031;-79
2023/03/28 11:54:13;;;;;;;6.32;2.40;;;;;;;;;;4957299;29;20023;-78
2023/03/28 11:56:58;;;;;;;4.47;2.53;;;;;;;;;;4939635;29;20031;-78
2023/03/28 11:59:34;;;;;;;4.07;2.60;;;;;;;;;;4957319;29;20024;-78
2023/03/28 12:02:12;;;;;;;8.77;2.60;;;;;;;;;;4956001;29;20038;-78
2023/03/28 12:04:45;;;;;;;6.68;2.58;;;;;;;;;;4957801;29;20051;-79
2023/03/28 12:07:17;;;;;;;5.80;2.80;;;;;;;;;;4955754;29;20024;-78
2023/03/28 12:09:46;;;;;;;4.90;2.92;;;;;;;;;;4956490;29;20050;-78
2023/03/28 12:12:15;;;;;;;5.63;2.90;;;;;;;;;;4957407;29;20079;-78
2023/03/28 12:14:56;;;;;;;6.90;2.97;;;;;;;;;;4956213;29;20023;-78
2023/03/28 12:17:31;;;;;;;5.55;3.17;;;;;;;;;;4956843;29;20024;-78
2023/03/28 12:19:59;;;;;;;4.60;2.72;;;;;;;;;;4957281;28;20027;-78
2023/03/28 12:22:29;;;;;;;6.22;2.88;;;;;;;;;;4960273;29;20509;-78
2023/03/28 12:25:05;;;;;;;4.57;2.60;;;;;;;;;;4960503;29;20031;-78
2023/03/28 12:27:41;;;;;;;5.90;2.63;;;;;;;;;;4961275;29;20484;-78
2023/03/28 12:30:15;;;;;;;7.47;2.40;;;;;;;;;;4934346;29;20095;-78
2023/03/28 12:32:44;;;;;;;4.88;2.70;;;;;;;;;;4941433;29;20028;-78
2023/03/28 12:35:25;;;;;;;6.68;2.78;;;;;;;;;;4942372;29;20115;-78
2023/03/28 12:37:51;;;;;;;6.47;2.88;;;;;;;;;;4941195;29;20166;-78
2023/03/28 12:40:18;;;;;;;4.43;2.85;;;;;;;;;;4941066;29;20087;-78
2023/03/28 12:42:45;;;;;;;7.95;2.38;;;;;;;;;;4941290;29;20030;-78
2023/03/28 12:45:31;;;;;;;5.75;2.92;;;;;;;;;;4941090;29;20031;-78
2023/03/28 12:48:02;;;;;;;4.57;2.65;;;;;;;;;;4942202;29;20049;-78
2023/03/28 12:50:35;;;;;;;8.93;3.25;;;;;;;;;;4940817;29;20024;-78
2023/03/28 12:53:01;;;;;;;6.07;2.70;;;;;;;;;;4941606;29;20111;-78
2023/03/28 12:55:27;;;;;;;5.43;2.72;;;;;;;;;;4941252;29;20024;-78
2023/03/28 12:57:55;;;;;;;5.20;3.03;;;;;;;;;;4941277;29;20505;-79
2023/03/28 13:00:39;;;;;;;7.90;3.05;;;;;;;;;;4941650;29;20449;-78
2023/03/28 13:03:06;;;;;;;4.88;2.95;;;;;;;;;;4941671;29;20045;-78
2023/03/28 13:05:41;;;;;;;7.95;3.47;;;;;;;;;;4941170;29;20039;-78
2023/03/28 13:08:16;;;;;;;6.97;3.08;;;;;;;;;;4943422;29;20024;-78
2023/03/28 13:10:42;;;;;;;6.22;3.05;;;;;;;;;;4943784;29;20070;-78
2023/03/28 13:13:11;;;;;;;6.15;2.92;;;;;;;;;;4942222;29;20032;-78
2023/03/28 13:16:03;;;;;;;5.15;3.22;;;;;;;;;;4944634;29;20038;-78
2023/03/28 13:18:30;;;;;;;4.85;2.80;;;;;;;;;;4942197;29;20530;-78
2023/03/28 13:20:58;;;;;;;5.05;3.17;;;;;;;;;;4939608;29;20359;-78
2023/03/28 13:23:31;;;;;;;4.75;3.50;;;;;;;;;;4922836;29;20118;-79
2023/03/28 13:25:59;;;;;;;6.25;3.78;;;;;;;;;;4941199;29;20026;-78
2023/03/28 13:28:44;;;;;;;6.90;3.75;;;;;;;;;;4941912;29;20479;-78
2023/03/28 13:31:17;;;;;;;6.03;3.42;;;;;;;;;;4959263;28;20078;-79
2023/03/28 13:33:48;;;;;;;5.57;3.33;;;;;;;;;;4958608;29;20031;-78
2023/03/28 13:36:18;;;;;;;5.03;3.10;;;;;;;;;;4958975;29;20362;-78
2023/03/28 13:39:03;;;;;;;5.38;3.10;;;;;;;;;;4958897;29;20051;-78
2023/03/28 13:41:54;;;;;;;6.95;3.42;;;;;;;;;;4940416;29;20472;-78
2023/03/28 13:44:33;;;;;;;5.03;3.13;;;;;;;;;;4947354;29;20038;-78
2023/03/28 13:46:59;;;;;;;7.80;3.67;;;;;;;;;;4957966;29;20056;-78
2023/03/28 13:49:27;;;;;;;7.97;3.72;;;;;;;;;;4957883;29;20115;-78
2023/03/28 13:52:01;;;;;;;6.03;3.33;;;;;;;;;;4958509;29;20033;-78
2023/03/28 13:54:27;;;;;;;5.63;3.30;;;;;;;;;;4958597;29;20020;-78
2023/03/28 13:56:53;;;;;;;5.75;3.53;;;;;;;;;;4958378;29;20024;-78
2023/03/28 13:59:24;;;;;;;7.10;3.70;;;;;;;;;;4950253;29;20046;-78
2023/03/28 14:01:58;;;;;;;9.50;3.30;;;;;;;;;;4947875;29;20066;-78
2023/03/28 14:04:26;;;;;;;5.78;2.38;;;;;;;;;;4947082;29;20047;-78
2023/03/28 14:06:53;;;;;;;4.38;2.40;;;;;;;;;;4939047;29;20046;-78
2023/03/28 14:09:28;;;;;;;6.22;2.60;;;;;;;;;;4940445;29;20072;-78
2023/03/28 14:11:55;;;;;;;5.03;2.30;;;;;;;;;;4937928;29;20485;-78
2023/03/28 14:14:29;;;;;;;4.28;2.60;;;;;;;;;;4936939;29;20035;-78
2023/03/28 14:16:56;;;;;;;4.97;2.42;;;;;;;;;;4937811;29;20526;-78
2023/03/28 14:19:34;;;;;;;6.57;2.30;;;;;;;;;;4938309;29;20083;-78
2023/03/28 14:22:00;;;;;;;5.25;2.17;;;;;;;;;;4936642;29;20098;-77
2023/03/28 14:24:27;;;;;;;4.97;2.08;;;;;;;;;;4936458;29;20587;-77
2023/03/28 14:27:04;;;;;;;5.00;2.10;;;;;;;;;;4936264;29;20024;-77
2023/03/28 14:29:30;;;;;;;6.50;2.40;;;;;;;;;;4936294;29;20035;-77
2023/03/28 14:31:56;;;;;;;4.10;1.70;;;;;;;;;;4936335;29;20488;-76
2023/03/28 14:34:23;;;;;;;5.28;1.85;;;;;;;;;;4936190;29;20042;-77
2023/03/28 14:36:59;;;;;;;6.00;2.00;;;;;;;;;;4936207;29;20366;-77
2023/03/28 14:39:32;;;;;;;4.93;2.10;;;;;;;;;;4936226;29;20159;-77
2023/03/28 14:42:03;;;;;;;5.72;1.98;;;;;;;;;;4935982;29;20062;-77
2023/03/28 14:44:31;;;;;;;5.45;2.25;;;;;;;;;;4936079;29;20024;-77
2023/03/28 14:46:58;;;;;;;6.22;2.25;;;;;;;;;;4935569;29;20471;-77
2023/03/28 14:49:24;;;;;;;7.88;2.20;;;;;;;;;;4935998;29;20410;-77
2023/03/28 14:51:55;;;;;;;5.35;2.72;;;;;;;;;;4935750;29;20032;-76
2023/03/28 14:54:23;;;;;;;9.02;2.95;;;;;;;;;;4935479;29;20034;-77
2023/03/28 14:56:49;;;;;;;5.55;2.70;;;;;;;;;;4952834;29;20102;-77
2023/03/28 14:59:18;;;;;;;7.20;2.33;;;;;;;;;;4954992;29;20383;-77